Time;durP1;ratioP1;P1;durP2;ratioP2;P2;SDS_P1;SDS_P2;PMS_P1;PMS_P2;Temp;Humidity;BMP_temperature;BMP_pressure;BME280_temperature;BME280_humidity;BME280_pressure;Samples;Min_cycle;Max_cycle;Signal;HPM_P1;HPM_P2
2023/05/13 00:01:37;;;;;;;4.13;3.75;;;;;;;13.38;54.37;101283.41;5156440;23;20474;-79
2023/05/13 00:04:06;;;;;;;3.88;3.58;;;;;;;13.33;54.95;101281.69;4923206;29;20415;-80
2023/05/13 00:06:33;;;;;;;4.13;3.58;;;;;;;13.28;55.42;101278.25;4906320;29;20046;-85
2023/05/13 00:09:00;;;;;;;5.93;3.05;;;;;;;13.24;55.03;101286.16;4923076;29;20491;-81
2023/05/13 00:11:28;;;;;;;3.80;3.50;;;;;;;13.21;55.24;101291.44;4916579;29;20096;-85
2023/05/13 00:13:56;;;;;;;3.58;3.22;;;;;;;13.20;55.16;101283.56;4898552;29;20104;-84
2023/05/13 00:16:26;;;;;;;3.35;2.95;;;;;;;13.20;55.75;101287.06;4937809;29;20058;-81
2023/05/13 00:18:53;;;;;;;6.10;3.35;;;;;;;13.18;55.83;101286.22;4907310;29;20043;-84
2023/05/13 00:21:19;;;;;;;4.15;3.35;;;;;;;13.19;55.63;101287.06;4921447;29;20040;-83
2023/05/13 00:23:46;;;;;;;5.60;3.55;;;;;;;13.18;55.88;101278.31;4913228;29;20134;-82
2023/05/13 00:26:14;;;;;;;3.72;3.45;;;;;;;13.18;55.21;101283.59;4905752;29;20047;-83
2023/05/13 00:28:40;;;;;;;6.32;4.20;;;;;;;13.17;55.30;101288.88;4911485;29;20074;-81
2023/05/13 00:31:08;;;;;;;6.20;3.65;;;;;;;13.12;56.32;101283.63;4903471;29;20051;-81
2023/05/13 00:33:35;;;;;;;6.80;3.47;;;;;;;13.12;56.13;101288.03;4901409;29;20047;-82
2023/05/13 00:36:02;;;;;;;4.40;4.00;;;;;;;13.06;55.92;101284.56;4907810;29;20044;-81
2023/05/13 00:38:28;;;;;;;3.88;3.53;;;;;;;12.97;56.67;101286.41;4912822;29;20994;-81
2023/05/13 00:40:58;;;;;;;3.38;3.03;;;;;;;12.91;57.09;101284.72;4905865;29;20052;-79
2023/05/13 00:43:24;;;;;;;5.38;4.22;;;;;;;12.83;57.12;101284.78;4922573;29;20099;-81
2023/05/13 00:45:51;;;;;;;6.13;3.50;;;;;;;12.77;58.20;101284.81;4911064;29;20059;-80
2023/05/13 00:48:18;;;;;;;4.35;3.95;;;;;;;12.65;58.49;101290.19;4912765;29;20044;-81
2023/05/13 00:51:07;;;;;;;3.35;3.05;;;;;;;12.53;59.40;101283.25;4919190;29;20495;-80
2023/05/13 00:53:39;;;;;;;;;;;;;;;12.45;62.47;101292.91;4927796;29;20047;-83
2023/05/13 00:56:06;;;;;;;4.55;4.05;;;;;;;12.35;61.46;101297.38;4918410;29;19922;-85
2023/05/13 00:58:33;;;;;;;6.22;4.22;;;;;;;12.28;62.12;101290.41;4921459;29;20155;-87
2023/05/13 01:01:21;;;;;;;5.47;4.47;;;;;;;12.22;63.52;101293.94;4912569;29;20048;-80
2023/05/13 01:04:04;;;;;;;6.15;4.63;;;;;;;12.14;63.94;101301.00;4938204;29;20134;-87
2023/05/13 01:07:02;;;;;;;5.60;4.77;;;;;;;12.11;64.89;101298.38;4955462;29;20486;-80
2023/05/13 01:09:53;;;;;;;8.10;4.20;;;;;;;12.07;65.29;101297.50;4948842;29;20797;-81
2023/05/13 01:12:30;;;;;;;4.30;3.90;;;;;;;12.04;64.85;101301.00;4949241;29;20134;-80
2023/05/13 01:15:09;;;;;;;4.95;4.55;;;;;;;11.97;67.10;101301.03;4947257;29;20035;-84
2023/05/13 01:18:20;;;;;;;5.65;4.43;;;;;;;11.90;67.41;101297.53;4946706;29;20465;-86
2023/05/13 01:20:47;;;;;;;7.38;5.13;;;;;;;11.81;68.59;101293.22;4951705;28;20047;-78
2023/05/13 01:23:15;;;;;;;5.28;4.68;;;;;;;11.74;68.89;101297.59;4948140;29;20044;-84
2023/05/13 01:25:42;;;;;;;6.00;5.38;;;;;;;11.67;71.61;101293.28;4955492;29;20055;-88
2023/05/13 01:28:09;;;;;;;6.03;5.53;;;;;;;11.68;71.15;101295.03;4958141;29;20134;-82
2023/05/13 01:30:36;;;;;;;6.07;5.50;;;;;;;11.62;71.60;101289.78;4934328;29;20075;-84
2023/05/13 01:33:04;;;;;;;7.35;5.20;;;;;;;11.56;71.78;101295.94;4957141;29;20150;-84
2023/05/13 01:35:32;;;;;;;8.63;6.00;;;;;;;11.50;72.45;101301.19;4940811;29;20052;-80
2023/05/13 01:38:00;;;;;;;6.68;6.07;;;;;;;11.46;73.30;101299.44;4958467;29;20051;-80
2023/05/13 01:40:27;;;;;;;8.32;5.60;;;;;;;11.38;73.57;101296.84;4949416;29;20077;-82
2023/05/13 01:42:53;;;;;;;6.18;5.32;;;;;;;11.31;74.48;101296.84;4950862;29;20420;-84
2023/05/13 01:45:20;;;;;;;10.57;6.68;;;;;;;11.26;76.12;101299.47;4948370;29;20058;-82
2023/05/13 01:47:46;;;;;;;10.85;6.20;;;;;;;11.21;75.99;101301.22;4940913;29;20047;-81
2023/05/13 01:50:13;;;;;;;13.50;7.05;;;;;;;11.17;77.11;101307.34;4958498;28;20062;-80
2023/05/13 01:52:40;;;;;;;6.43;5.72;;;;;;;11.14;77.54;101309.97;4955842;29;20070;-80
2023/05/13 01:55:07;;;;;;;9.88;6.65;;;;;;;11.08;77.66;101311.72;4956528;29;20122;-81
2023/05/13 01:57:33;;;;;;;5.97;4.85;;;;;;;11.06;77.71;101302.13;4956131;28;20035;-82
2023/05/13 02:00:00;;;;;;;8.52;5.90;;;;;;;11.04;78.14;101294.28;4917930;29;20070;-81
2023/05/13 02:02:28;;;;;;;5.47;5.07;;;;;;;10.99;78.11;101298.63;4955638;29;20051;-80
2023/05/13 02:04:54;;;;;;;7.60;5.13;;;;;;;11.00;77.65;101302.13;4957719;28;20065;-81
2023/05/13 02:07:21;;;;;;;6.90;5.03;;;;;;;11.04;76.93;101302.13;4951209;28;20068;-81
2023/05/13 02:09:47;;;;;;;6.70;5.25;;;;;;;11.06;77.03;101307.38;4952929;29;20047;-83
2023/05/13 02:12:14;;;;;;;4.78;4.13;;;;;;;11.04;76.86;101299.50;4940368;29;20402;-81
2023/05/13 02:14:41;;;;;;;5.80;4.80;;;;;;;11.02;76.64;101296.00;4956583;29;20431;-82
2023/05/13 02:17:08;;;;;;;6.13;5.22;;;;;;;10.99;77.37;101303.88;4954440;29;20510;-84
2023/05/13 02:19:34;;;;;;;6.57;5.82;;;;;;;10.93;78.85;101296.00;4977664;23;20134;-81
2023/05/13 02:22:01;;;;;;;8.70;6.53;;;;;;;10.87;80.30;101306.47;4923369;29;20043;-80
2023/05/13 02:24:30;;;;;;;6.15;5.55;;;;;;;10.83;80.23;101307.34;4936697;29;20052;-81
2023/05/13 02:26:56;;;;;;;6.13;5.70;;;;;;;10.73;80.97;101306.50;4941749;29;20091;-80
2023/05/13 02:29:24;;;;;;;6.85;6.20;;;;;;;10.65;81.52;101301.25;4938298;29;20100;-81
2023/05/13 02:31:50;;;;;;;8.98;6.60;;;;;;;10.58;82.35;101304.72;4940309;29;20039;-82
2023/05/13 02:34:18;;;;;;;8.45;5.63;;;;;;;10.53;82.56;101309.97;4937981;29;20051;-83
2023/05/13 02:36:44;;;;;;;6.82;5.35;;;;;;;10.49;81.80;101302.09;4932077;29;20487;-82
2023/05/13 02:39:11;;;;;;;5.53;5.00;;;;;;;10.46;81.93;101304.72;4935515;29;20127;-81
2023/05/13 02:41:37;;;;;;;8.32;4.20;;;;;;;10.43;81.71;101302.97;4941670;29;20123;-81
2023/05/13 02:44:04;;;;;;;6.57;5.40;;;;;;;10.40;81.20;101295.06;4938085;29;20050;-80
2023/05/13 02:46:32;;;;;;;5.28;4.78;;;;;;;10.40;81.17;101306.44;4920643;29;20075;-81
2023/05/13 02:48:59;;;;;;;7.75;5.53;;;;;;;10.38;81.02;101304.69;4915847;29;20051;-82
2023/05/13 02:51:26;;;;;;;5.72;4.97;;;;;;;10.34;80.91;101314.22;4936520;29;20075;-81
2023/05/13 02:53:52;;;;;;;5.80;5.30;;;;;;;10.31;80.77;101309.00;4918020;29;20134;-86
2023/05/13 02:56:19;;;;;;;4.20;3.80;;;;;;;10.27;80.56;101309.84;4936105;29;20052;-79
2023/05/13 02:58:46;;;;;;;6.93;4.93;;;;;;;10.25;80.61;101308.97;4940868;29;20402;-85
2023/05/13 03:01:16;;;;;;;6.30;5.13;;;;;;;10.22;80.86;101302.00;4933988;29;20120;-81
2023/05/13 03:03:43;;;;;;;7.20;5.40;;;;;;;10.18;81.30;101305.47;4919685;29;20554;-88
2023/05/13 03:06:31;;;;;;;6.07;5.15;;;;;;;10.19;81.64;101303.72;4952176;29;20046;-81
2023/05/13 03:08:58;;;;;;;7.32;4.82;;;;;;;10.16;81.37;101306.34;4917532;29;20134;-83
2023/05/13 03:11:25;;;;;;;5.38;4.88;;;;;;;10.19;81.59;101309.81;4943203;29;20043;-81
2023/05/13 03:13:52;;;;;;;6.38;5.65;;;;;;;10.24;82.03;101310.69;4942916;29;20071;-82
2023/05/13 03:16:18;;;;;;;5.28;4.82;;;;;;;10.27;82.45;101310.72;4936633;29;20052;-82
2023/05/13 03:18:45;;;;;;;7.93;6.30;;;;;;;10.32;82.17;101315.09;4940205;28;20067;-89
2023/05/13 03:21:11;;;;;;;9.57;5.95;;;;;;;10.35;82.46;101310.78;4951577;29;20036;-79
2023/05/13 03:23:38;;;;;;;5.95;5.45;;;;;;;10.40;82.36;101314.28;4940614;29;20118;-82
2023/05/13 03:26:05;;;;;;;6.65;5.50;;;;;;;10.47;82.33;101312.56;4957450;29;20066;-83
2023/05/13 03:28:32;;;;;;;9.45;6.30;;;;;;;10.52;81.89;101310.81;4954252;29;20096;-81
2023/05/13 03:30:58;;;;;;;5.88;5.22;;;;;;;10.57;82.12;101319.56;4956160;29;20070;-81
2023/05/13 03:33:25;;;;;;;6.35;5.75;;;;;;;10.59;82.16;101315.19;4947596;29;20122;-84
2023/05/13 03:35:52;;;;;;;5.97;5.43;;;;;;;10.63;82.21;101320.44;4953202;29;20066;-87
2023/05/13 03:38:19;;;;;;;6.82;6.07;;;;;;;10.65;82.18;101319.56;4954565;29;20102;-82
2023/05/13 03:40:46;;;;;;;10.48;7.00;;;;;;;10.64;82.00;101323.06;4951723;28;20101;-88
2023/05/13 03:43:12;;;;;;;5.45;4.95;;;;;;;10.65;82.23;101324.81;4951382;29;20046;-82
2023/05/13 03:45:39;;;;;;;7.30;5.43;;;;;;;10.65;81.57;101329.16;4930688;29;20102;-81
2023/05/13 03:48:06;;;;;;;6.40;5.75;;;;;;;10.68;81.71;101334.41;4938650;29;20071;-94
2023/05/13 03:50:34;;;;;;;7.85;5.97;;;;;;;10.70;81.55;101328.31;4956271;29;20051;-81
2023/05/13 03:53:01;;;;;;;5.80;5.30;;;;;;;10.74;81.31;101337.91;4942603;29;20051;-81
2023/05/13 03:55:28;;;;;;;6.20;5.13;;;;;;;10.79;80.93;101340.53;4938625;29;20512;-83
2023/05/13 03:57:55;;;;;;;6.63;6.00;;;;;;;10.80;81.31;101337.03;4947462;29;20075;-82
2023/05/13 04:00:21;;;;;;;7.22;5.93;;;;;;;10.80;81.40;101336.19;4932882;29;20386;-80
2023/05/13 04:02:48;;;;;;;7.47;4.75;;;;;;;10.76;81.31;101338.78;4958741;28;20043;-81
2023/05/13 04:05:17;;;;;;;7.57;6.88;;;;;;;10.73;81.82;101330.06;4955088;29;20047;-81
2023/05/13 04:07:45;;;;;;;5.75;5.25;;;;;;;10.63;82.19;101326.53;4953656;29;20047;-85
2023/05/13 04:10:13;;;;;;;7.90;6.53;;;;;;;10.59;82.84;101337.88;4949809;29;20042;-82
2023/05/13 04:12:40;;;;;;;8.77;6.50;;;;;;;10.58;82.89;101341.38;4956418;29;20071;-81
2023/05/13 04:15:10;;;;;;;9.10;5.88;;;;;;;10.61;83.03;101335.25;4957812;29;20118;-81
2023/05/13 04:17:37;;;;;;;8.07;5.65;;;;;;;10.67;82.96;101338.75;4950472;29;20103;-80
2023/05/13 04:20:07;;;;;;;5.38;4.88;;;;;;;10.69;82.71;101344.88;4944444;29;20055;-81
2023/05/13 04:22:35;;;;;;;5.40;4.95;;;;;;;10.72;82.54;101338.78;4952617;29;20106;-80
2023/05/13 04:25:01;;;;;;;7.55;6.07;;;;;;;10.72;82.18;101342.25;4935921;29;20150;-82
2023/05/13 04:27:31;;;;;;;8.57;6.05;;;;;;;10.79;82.07;101339.66;4961335;29;20055;-84
2023/05/13 04:29:57;;;;;;;4.97;4.45;;;;;;;10.83;81.37;101338.78;4959502;28;20049;-83
2023/05/13 04:32:27;;;;;;;6.05;5.38;;;;;;;10.88;81.26;101344.91;4961631;28;20494;-82
2023/05/13 04:34:56;;;;;;;6.30;4.70;;;;;;;10.92;81.25;101346.66;4950657;29;20043;-91
2023/05/13 04:37:26;;;;;;;5.70;5.13;;;;;;;11.00;80.59;101350.16;4945823;29;20050;-78
2023/05/13 04:39:53;;;;;;;6.10;4.40;;;;;;;11.04;79.92;101343.16;4957547;29;20095;-82
2023/05/13 04:42:19;;;;;;;6.25;5.00;;;;;;;11.08;79.21;101339.66;4954092;29;20110;-79
2023/05/13 04:44:46;;;;;;;5.45;4.45;;;;;;;11.12;79.07;101341.44;4956482;29;20040;-79
2023/05/13 04:47:15;;;;;;;6.50;4.90;;;;;;;11.16;79.30;101344.91;4959377;29;20043;-80
2023/05/13 04:49:45;;;;;;;5.95;5.35;;;;;;;11.16;79.18;101352.75;4960377;28;20130;-92
2023/05/13 04:52:13;;;;;;;5.25;4.65;;;;;;;11.16;78.95;101348.41;4961987;29;20035;-83
2023/05/13 04:54:41;;;;;;;5.53;4.90;;;;;;;11.18;79.00;101348.41;4954684;29;20035;-83
2023/05/13 04:57:27;;;;;;;9.95;5.60;;;;;;;11.20;78.73;101354.53;4962956;29;20407;-80
2023/05/13 04:59:56;;;;;;;6.50;5.80;;;;;;;11.21;78.57;101353.63;4960077;29;20043;-80
2023/05/13 05:02:23;;;;;;;5.40;4.88;;;;;;;11.21;78.68;101359.78;4959512;28;20498;-79
2023/05/13 05:04:49;;;;;;;5.43;4.88;;;;;;;11.24;78.23;101361.50;4960024;28;20164;-79
2023/05/13 05:07:16;;;;;;;5.43;4.88;;;;;;;11.27;78.75;101358.03;4960018;29;20125;-79
2023/05/13 05:09:44;;;;;;;6.00;5.22;;;;;;;11.36;77.96;101361.50;4960026;29;20508;-80
2023/05/13 05:12:10;;;;;;;7.00;5.45;;;;;;;11.46;77.18;101365.00;4954609;29;20052;-82
2023/05/13 05:14:38;;;;;;;5.53;5.03;;;;;;;11.57;77.29;101367.59;4960248;29;20130;-80
2023/05/13 05:17:04;;;;;;;4.78;4.38;;;;;;;11.68;76.06;101363.22;4958974;29;20128;-79
2023/05/13 05:20:31;;;;;;;10.82;5.30;;;;;;;11.80;75.30;101361.41;4944396;29;20059;-79
2023/05/13 05:22:58;;;;;;;3.83;3.47;;;;;;;11.88;74.16;101359.66;4945146;29;20459;-80
2023/05/13 05:25:25;;;;;;;6.75;4.93;;;;;;;11.89;73.15;101370.16;4931960;29;20044;-80
2023/05/13 05:27:51;;;;;;;5.45;4.40;;;;;;;11.91;73.42;101357.91;4949875;29;20048;-79
2023/05/13 05:30:17;;;;;;;6.13;4.70;;;;;;;11.91;73.15;101365.78;4936505;29;20054;-78
2023/05/13 05:32:44;;;;;;;5.20;4.55;;;;;;;11.92;71.32;101371.88;4944349;29;20125;-80
2023/05/13 05:35:10;;;;;;;4.93;4.30;;;;;;;11.94;71.63;101374.50;4936591;29;20048;-79
2023/05/13 05:37:37;;;;;;;8.13;4.30;;;;;;;11.97;71.48;101375.41;4940655;29;20394;-79
2023/05/13 05:40:04;;;;;;;6.07;4.82;;;;;;;12.02;70.44;101371.00;4939698;29;20128;-80
2023/05/13 05:42:30;;;;;;;7.88;4.40;;;;;;;12.04;69.84;101365.75;4943132;28;20554;-79
2023/05/13 05:44:57;;;;;;;7.75;4.50;;;;;;;12.08;70.33;101370.09;4949693;29;20142;-80
2023/05/13 05:47:23;;;;;;;7.40;4.95;;;;;;;12.12;70.39;101369.22;4957229;29;20049;-79
2023/05/13 05:49:50;;;;;;;7.55;4.97;;;;;;;12.16;69.31;101370.09;4941364;29;20039;-85
2023/05/13 05:52:17;;;;;;;6.65;5.07;;;;;;;12.21;69.20;101377.03;4948006;29;20107;-80
2023/05/13 05:54:43;;;;;;;6.95;4.05;;;;;;;12.26;68.61;101382.28;4951365;29;20036;-80
2023/05/13 05:57:09;;;;;;;4.78;4.00;;;;;;;12.31;68.39;101375.28;4953442;29;20156;-80
2023/05/13 05:59:36;;;;;;;8.82;5.30;;;;;;;12.38;68.54;101378.72;4955659;29;20047;-79
2023/05/13 06:02:05;;;;;;;8.88;4.72;;;;;;;12.43;67.06;101373.47;4945482;29;20050;-82
2023/05/13 06:04:34;;;;;;;7.45;4.18;;;;;;;12.46;66.96;101371.69;4936689;29;20075;-80
2023/05/13 06:07:01;;;;;;;5.43;3.75;;;;;;;12.50;67.14;101373.44;4944174;29;20059;-81
2023/05/13 06:09:27;;;;;;;5.53;4.18;;;;;;;12.57;66.53;101369.03;4941282;29;20050;-79
2023/05/13 06:11:54;;;;;;;8.30;5.38;;;;;;;12.64;66.07;101377.72;4957375;29;20051;-79
2023/05/13 06:14:20;;;;;;;4.47;4.07;;;;;;;12.71;65.75;101379.44;4947838;29;20058;-80
2023/05/13 06:16:46;;;;;;;6.13;3.80;;;;;;;12.78;64.70;101377.66;4957178;29;20031;-80
2023/05/13 06:19:13;;;;;;;6.38;3.92;;;;;;;12.84;64.18;101373.22;5077628;23;20058;-80
2023/05/13 06:21:41;;;;;;;5.85;4.50;;;;;;;12.90;63.52;101367.03;4974522;28;20053;-79
2023/05/13 06:24:09;;;;;;;6.40;3.55;;;;;;;12.98;63.97;101375.75;4974601;28;20062;-79
2023/05/13 06:26:36;;;;;;;7.10;4.38;;;;;;;13.06;63.46;101368.69;4974216;28;20054;-81
2023/05/13 06:29:03;;;;;;;4.78;4.32;;;;;;;13.14;62.76;101376.50;4957921;28;20137;-79
2023/05/13 06:31:39;;;;;;;5.60;3.58;;;;;;;13.22;62.65;101371.19;4961588;28;20086;-80
2023/05/13 06:34:05;;;;;;;7.10;3.88;;;;;;;13.27;62.46;101372.03;4956280;29;20070;-79
2023/05/13 06:36:32;;;;;;;6.03;3.83;;;;;;;13.32;62.12;101370.19;4946006;28;20038;-79
2023/05/13 06:39:06;;;;;;;8.57;3.72;;;;;;;13.42;61.99;101375.44;4958635;28;20046;-84
2023/05/13 06:41:32;;;;;;;5.18;4.40;;;;;;;13.48;61.63;101378.00;4948823;28;20059;-83
2023/05/13 06:43:59;;;;;;;7.80;3.97;;;;;;;13.55;61.48;101377.06;4966134;28;20046;-79
2023/05/13 06:46:25;;;;;;;5.90;4.00;;;;;;;13.62;61.09;101376.09;4957162;28;20204;-84
2023/05/13 06:48:54;;;;;;;3.72;3.33;;;;;;;13.71;61.24;101383.91;4954220;29;20055;-79
2023/05/13 06:51:20;;;;;;;7.15;4.38;;;;;;;13.83;60.58;101382.03;4959184;28;20051;-80
2023/05/13 06:53:47;;;;;;;5.18;3.72;;;;;;;13.90;60.53;101381.09;4956256;28;20053;-84
2023/05/13 06:56:16;;;;;;;7.50;3.67;;;;;;;13.97;60.05;101384.53;4961261;28;20046;-83
2023/05/13 06:58:42;;;;;;;7.10;4.15;;;;;;;14.13;60.15;101375.56;4970325;28;20043;-79
2023/05/13 07:01:09;;;;;;;6.45;3.90;;;;;;;14.31;59.40;101381.47;4950787;28;20042;-81
2023/05/13 07:03:36;;;;;;;7.03;4.20;;;;;;;14.66;58.73;101377.53;4968821;28;20051;-80
2023/05/13 07:06:03;;;;;;;7.05;4.32;;;;;;;15.12;56.81;101375.94;4948480;28;20074;-80
2023/05/13 07:08:30;;;;;;;3.60;3.30;;;;;;;15.61;55.44;101367.19;4978395;28;20084;-80
2023/05/13 07:10:56;;;;;;;6.63;4.95;;;;;;;16.17;53.77;101363.50;4970173;28;20054;-80
2023/05/13 07:13:23;;;;;;;6.13;3.95;;;;;;;16.69;52.02;101369.41;4969085;28;20507;-80
2023/05/13 07:15:49;;;;;;;4.40;3.22;;;;;;;17.26;51.53;101368.06;4962636;28;20046;-80
2023/05/13 07:18:16;;;;;;;4.55;3.17;;;;;;;17.84;49.95;101368.28;4962290;28;20089;-80
2023/05/13 07:20:43;;;;;;;4.22;3.30;;;;;;;18.23;48.75;101361.91;4949047;28;20055;-82
2023/05/13 07:23:10;;;;;;;5.15;3.78;;;;;;;18.70;47.22;101360.50;4953324;28;20043;-86
2023/05/13 07:25:36;;;;;;;8.55;3.90;;;;;;;18.94;46.65;101359.75;4941875;29;20046;-84
2023/05/13 07:28:03;;;;;;;3.97;3.67;;;;;;;19.32;46.07;101360.25;4952029;28;20055;-81
2023/05/13 07:30:30;;;;;;;6.15;3.70;;;;;;;19.55;44.38;101357.72;4953581;28;20121;-84
2023/05/13 07:32:56;;;;;;;3.67;3.38;;;;;;;19.83;44.99;101358.50;4959134;28;20066;-80
2023/05/13 07:35:23;;;;;;;4.10;3.40;;;;;;;20.36;44.04;101356.50;4952206;29;20047;-79
2023/05/13 07:37:50;;;;;;;5.97;3.40;;;;;;;20.59;42.44;101354.75;4910043;29;20048;-82
2023/05/13 07:40:16;;;;;;;3.10;2.80;;;;;;;20.86;42.57;101354.59;4928171;28;20047;-82
2023/05/13 07:42:43;;;;;;;7.80;3.80;;;;;;;21.35;41.33;101354.34;4956487;28;20463;-81
2023/05/13 07:45:10;;;;;;;4.53;3.30;;;;;;;21.58;41.10;101358.69;4953542;28;20043;-82
2023/05/13 07:47:37;;;;;;;4.97;4.15;;;;;;;22.01;38.82;101347.91;4951810;28;20048;-80
2023/05/13 07:50:05;;;;;;;4.70;3.40;;;;;;;22.26;39.66;101355.63;4951099;28;20039;-81
2023/05/13 07:52:32;;;;;;;4.60;3.35;;;;;;;22.72;38.92;101353.47;4955395;28;20509;-81
2023/05/13 07:54:58;;;;;;;6.10;3.22;;;;;;;23.21;38.29;101351.97;4937513;29;20048;-80
2023/05/13 07:57:25;;;;;;;4.65;3.17;;;;;;;23.46;37.43;101349.75;4951475;29;20105;-83
2023/05/13 07:59:53;;;;;;;5.43;3.63;;;;;;;23.81;37.13;101340.81;4952683;29;20127;-81
2023/05/13 08:02:20;;;;;;;5.03;3.70;;;;;;;24.04;35.97;101344.97;4941336;29;20111;-81
2023/05/13 08:04:47;;;;;;;3.67;3.33;;;;;;;23.57;36.21;101341.19;4938020;29;20055;-81
2023/05/13 08:07:13;;;;;;;5.63;3.67;;;;;;;23.94;36.33;101355.28;4934290;29;20166;-83
2023/05/13 08:09:40;;;;;;;5.28;3.58;;;;;;;24.22;35.73;101347.56;4955228;29;20039;-85
2023/05/13 08:12:07;;;;;;;4.70;3.67;;;;;;;24.87;34.86;101349.28;4955540;29;20045;-85
2023/05/13 08:14:33;;;;;;;5.38;3.65;;;;;;;25.25;34.13;101349.69;4956920;28;20061;-81
2023/05/13 08:17:02;;;;;;;5.38;3.85;;;;;;;25.01;33.27;101352.00;4954156;28;20047;-82
2023/05/13 08:19:28;;;;;;;5.85;3.50;;;;;;;24.82;33.90;101346.84;4949873;29;20062;-83
2023/05/13 08:21:55;;;;;;;3.65;3.30;;;;;;;25.51;33.59;101346.41;4955450;29;20039;-82
2023/05/13 08:24:21;;;;;;;4.47;3.17;;;;;;;25.59;33.38;101346.78;4938969;29;20505;-82
2023/05/13 08:26:48;;;;;;;5.22;3.53;;;;;;;26.13;32.92;101350.69;4944660;29;20039;-83
2023/05/13 08:29:14;;;;;;;5.15;3.25;;;;;;;26.64;31.75;101345.56;4942277;28;20050;-82
2023/05/13 08:31:41;;;;;;;3.75;3.35;;;;;;;26.85;31.44;101343.28;4956327;28;20128;-81
2023/05/13 08:34:08;;;;;;;4.18;3.88;;;;;;;26.93;31.60;101345.47;4936320;29;20150;-89
2023/05/13 08:36:34;;;;;;;4.78;3.95;;;;;;;27.42;30.56;101343.09;4950734;28;20501;-85
2023/05/13 08:39:02;;;;;;;6.47;3.75;;;;;;;27.84;30.59;101346.44;4950138;29;20449;-85
2023/05/13 08:41:30;;;;;;;3.03;2.70;;;;;;;27.88;29.89;101345.25;4960006;28;20071;-83
2023/05/13 08:43:59;;;;;;;4.35;3.33;;;;;;;27.46;30.35;101347.31;4953616;28;20078;-83
2023/05/13 08:46:28;;;;;;;3.47;3.22;;;;;;;28.09;29.90;101347.41;4934781;29;20059;-82
2023/05/13 08:48:56;;;;;;;6.88;4.00;;;;;;;28.29;29.40;101354.03;4957961;28;20121;-83
2023/05/13 08:51:22;;;;;;;4.75;3.55;;;;;;;28.57;29.26;101355.56;4957369;28;20383;-84
2023/05/13 08:53:51;;;;;;;3.20;2.90;;;;;;;28.52;29.06;101355.88;4934959;29;20044;-82
2023/05/13 08:56:18;;;;;;;6.88;3.05;;;;;;;28.74;28.53;101351.63;4933932;29;20043;-88
2023/05/13 08:58:44;;;;;;;6.40;3.60;;;;;;;28.87;28.98;101349.72;4940906;28;20050;-84
2023/05/13 09:01:16;;;;;;;4.65;3.53;;;;;;;29.32;27.63;101358.97;4938803;28;20043;-86
2023/05/13 09:04:04;;;;;;;3.70;3.40;;;;;;;29.14;28.08;101358.53;4939398;29;20043;-83
2023/05/13 09:06:31;;;;;;;5.07;3.58;;;;;;;29.13;28.44;101363.06;4954413;28;20053;-83
2023/05/13 09:08:58;;;;;;;3.92;3.63;;;;;;;29.68;28.32;101362.47;4955644;28;20143;-84
2023/05/13 09:11:25;;;;;;;10.23;4.97;;;;;;;29.19;27.68;101365.28;4951471;28;20150;-91
2023/05/13 09:13:59;;;;;;;4.55;4.13;;;;;;;29.09;27.92;101358.88;4941973;28;20550;-86
2023/05/13 09:16:28;;;;;;;5.10;4.13;;;;;;;28.55;28.69;101355.66;4954687;28;20046;-87
2023/05/13 09:19:00;;;;;;;5.05;4.53;;;;;;;28.19;29.25;101357.38;4952079;28;20035;-85
2023/05/13 09:21:34;;;;;;;5.70;3.60;;;;;;;28.98;28.45;101351.63;4952433;28;20129;-85
2023/05/13 09:24:17;;;;;;;6.47;4.03;;;;;;;30.08;27.41;101358.44;4937021;29;20154;-83
2023/05/13 09:26:44;;;;;;;6.25;4.32;;;;;;;30.76;26.56;101352.94;4946764;28;20122;-86
2023/05/13 09:29:27;;;;;;;4.75;3.95;;;;;;;30.87;26.32;101352.00;4950773;28;20054;-83
2023/05/13 09:32:00;;;;;;;6.32;4.05;;;;;;;31.32;26.13;101347.25;4934272;29;20058;-84
2023/05/13 09:34:30;;;;;;;5.38;3.80;;;;;;;31.10;25.31;101347.41;4955941;28;20075;-85
2023/05/13 09:37:08;;;;;;;3.53;3.20;;;;;;;31.61;25.01;101345.72;4951390;29;20121;-86
2023/05/13 09:39:41;;;;;;;3.47;3.28;;;;;;;32.31;23.89;101346.72;4947719;28;20054;-84
2023/05/13 09:42:18;;;;;;;6.55;4.03;;;;;;;32.37;23.53;101345.31;4958640;28;20039;-88
2023/05/13 09:44:46;;;;;;;6.05;3.33;;;;;;;32.56;23.01;101349.91;4956725;28;20051;-85
2023/05/13 09:47:17;;;;;;;3.53;3.33;;;;;;;32.26;23.40;101342.75;4940674;28;20043;-84
2023/05/13 09:49:46;;;;;;;3.80;3.10;;;;;;;31.62;24.15;101337.47;4957369;28;20043;-84
2023/05/13 09:52:19;;;;;;;4.25;3.03;;;;;;;32.19;23.56;101344.28;4953501;29;20049;-89
2023/05/13 09:54:46;;;;;;;3.15;2.95;;;;;;;31.71;23.73;101341.22;4952498;29;20172;-85
2023/05/13 09:57:13;;;;;;;6.20;3.53;;;;;;;31.15;24.01;101337.03;4955628;28;20039;-84
2023/05/13 09:59:40;;;;;;;3.58;3.05;;;;;;;31.29;23.46;101349.34;4953742;29;20043;-85
2023/05/13 10:02:07;;;;;;;6.82;3.53;;;;;;;31.57;22.93;101334.28;4958061;28;20050;-89
2023/05/13 10:04:34;;;;;;;5.93;4.00;;;;;;;30.89;23.99;101344.66;4973559;28;20043;-83
2023/05/13 10:07:05;;;;;;;3.60;3.30;;;;;;;31.30;23.56;101341.13;4953647;29;20727;-83
2023/05/13 10:09:36;;;;;;;5.97;3.47;;;;;;;31.34;24.02;101352.53;4947581;28;20055;-84
2023/05/13 10:12:07;;;;;;;3.85;3.40;;;;;;;32.08;23.53;101345.22;4937370;29;20051;-84
2023/05/13 10:14:36;;;;;;;3.45;3.17;;;;;;;32.14;22.54;101350.09;4956016;28;20073;-84
2023/05/13 10:17:04;;;;;;;3.85;2.83;;;;;;;32.65;22.77;101338.22;4953851;28;20050;-85
2023/05/13 10:19:31;;;;;;;5.68;3.50;;;;;;;33.18;21.42;101351.50;4954968;28;20087;-85
2023/05/13 10:21:58;;;;;;;3.72;2.70;;;;;;;32.06;23.02;101339.06;4938222;29;20387;-85
2023/05/13 10:24:25;;;;;;;3.83;3.35;;;;;;;31.55;23.01;101335.41;4950959;28;20083;-85
2023/05/13 10:26:53;;;;;;;7.50;3.75;;;;;;;31.31;22.09;101350.09;4958283;28;20050;-85
2023/05/13 10:29:22;;;;;;;3.13;2.75;;;;;;;31.18;23.45;101342.19;4949536;28;20558;-85
2023/05/13 10:31:50;;;;;;;5.90;3.75;;;;;;;31.44;23.06;101339.06;4955119;28;20049;-83
2023/05/13 10:34:17;;;;;;;7.88;3.40;;;;;;;31.43;22.96;101338.22;4959776;28;20051;-84
2023/05/13 10:37:16;;;;;;;6.50;3.22;;;;;;;32.27;22.68;101341.75;4952618;28;20475;-84
2023/05/13 10:40:25;;;;;;;4.75;3.00;;;;;;;32.87;21.45;101352.53;4945878;29;20047;-86
2023/05/13 10:43:18;;;;;;;3.53;3.15;;;;;;;32.00;22.27;101345.91;4929027;29;20055;-85
2023/05/13 10:45:49;;;;;;;7.55;3.03;;;;;;;32.58;21.67;101339.78;4950657;29;20070;-84
2023/05/13 10:48:18;;;;;;;4.28;3.30;;;;;;;33.38;21.43;101347.78;4958174;28;20067;-84
2023/05/13 10:50:55;;;;;;;5.63;3.50;;;;;;;32.24;21.90;101339.28;4954835;29;20054;-85
2023/05/13 10:53:30;;;;;;;3.08;2.88;;;;;;;32.64;21.83;101339.19;4949583;29;20051;-85
2023/05/13 10:55:59;;;;;;;4.27;2.90;;;;;;;33.04;21.79;101331.97;4938108;29;20049;-83
2023/05/13 10:58:37;;;;;;;4.70;3.25;;;;;;;33.71;20.73;101340.09;4953398;28;20054;-85
2023/05/13 11:01:17;;;;;;;4.60;3.33;;;;;;;34.17;20.58;101339.31;4948978;29;20486;-84
2023/05/13 11:03:55;;;;;;;3.33;3.13;;;;;;;34.86;19.97;101326.13;4932100;29;20130;-84
2023/05/13 11:06:29;;;;;;;3.75;3.08;;;;;;;34.77;19.79;101331.47;4947196;29;20094;-86
2023/05/13 11:08:55;;;;;;;3.42;3.08;;;;;;;32.81;20.82;101325.97;4943560;29;20395;-84
2023/05/13 11:11:22;;;;;;;2.97;2.78;;;;;;;32.49;21.74;101321.66;4950702;28;20066;-86
2023/05/13 11:13:52;;;;;;;2.85;2.63;;;;;;;32.95;21.51;101322.81;4950908;28;20516;-86
2023/05/13 11:16:20;;;;;;;4.32;2.88;;;;;;;30.72;23.06;101324.44;4954933;28;20043;-85
2023/05/13 11:18:47;;;;;;;4.00;2.85;;;;;;;30.41;22.97;101332.38;4936810;28;20545;-86
2023/05/13 11:21:15;;;;;;;4.85;3.00;;;;;;;31.35;22.38;101324.50;4948354;29;20118;-84
2023/05/13 11:24:05;;;;;;;2.85;2.65;;;;;;;32.62;21.04;101318.66;4952747;28;20051;-86
2023/05/13 11:26:51;;;;;;;4.72;2.92;;;;;;;33.59;19.48;101323.13;4951235;28;20557;-85
2023/05/13 11:29:36;;;;;;;3.42;3.13;;;;;;;33.68;19.73;101326.81;4950252;29;20086;-84
2023/05/13 11:32:06;;;;;;;4.13;2.97;;;;;;;34.39;19.62;101313.59;4935636;29;20362;-85
2023/05/13 11:34:34;;;;;;;3.28;2.83;;;;;;;34.67;19.23;101318.97;4935165;28;20046;-84